createdAt,value
2022-12-13T00:02:30.140Z,-2.44
2022-12-13T00:22:32.147Z,-2.48
2022-12-13T00:42:33.676Z,-2.56
2022-12-13T01:02:35.420Z,-2.69
2022-12-13T01:22:40.146Z,-2.58
2022-12-13T01:42:44.575Z,-2.77
2022-12-13T02:02:46.225Z,-2.68
2022-12-13T02:23:05.983Z,-3.00
2022-12-13T03:04:01.118Z,-3.12
2022-12-13T03:24:21.530Z,-3.40
2022-12-13T03:44:41.656Z,-4.34
2022-12-13T04:05:02.505Z,-5.24
2022-12-13T04:25:04.274Z,-4.93
2022-12-13T04:45:06.059Z,-5.22
2022-12-13T05:05:07.674Z,-5.52
2022-12-13T05:25:09.481Z,-6.19
2022-12-13T05:45:10.971Z,-6.10
2022-12-13T06:05:12.882Z,-6.37
2022-12-13T06:25:31.365Z,-6.37
2022-12-13T06:45:57.158Z,-6.21
2022-12-13T07:05:58.794Z,-6.15
2022-12-13T07:26:04.493Z,-5.17
2022-12-13T07:46:06.112Z,-4.36
2022-12-13T08:06:10.952Z,-3.97
2022-12-13T08:26:12.579Z,-3.24
2022-12-13T08:46:17.460Z,-2.56
2022-12-13T09:06:37.667Z,-2.05
2022-12-13T09:26:59.510Z,-1.66
2022-12-13T09:47:23.629Z,-1.25
2022-12-13T10:07:44.962Z,-1.16
2022-12-13T10:48:21.699Z,-0.80
2022-12-13T11:08:25.893Z,-0.76
2022-12-13T11:28:27.963Z,-0.67
2022-12-13T11:48:29.869Z,-0.81
2022-12-13T12:08:33.350Z,-0.62
2022-12-13T12:28:47.128Z,-0.74
2022-12-13T12:49:00.454Z,-0.76
2022-12-13T13:09:03.289Z,-0.71
2022-12-13T13:29:04.903Z,-0.91
2022-12-13T13:49:06.815Z,-1.03
2022-12-13T14:09:08.481Z,-1.29
2022-12-13T14:29:10.448Z,-1.51
2022-12-13T14:49:11.994Z,-1.75
2022-12-13T15:09:13.808Z,-2.05
2022-12-13T15:29:15.405Z,-2.28
2022-12-13T15:49:17.134Z,-2.55
2022-12-13T16:09:18.774Z,-2.50
2022-12-13T16:29:21.542Z,-2.59
2022-12-13T16:49:23.644Z,-2.85
2022-12-13T17:09:27.858Z,-3.15
2022-12-13T17:29:44.914Z,-2.98
2022-12-13T19:33:32.641Z,-3.40
2022-12-13T19:53:34.255Z,-3.62
2022-12-13T20:13:49.051Z,-3.77
2022-12-13T20:33:50.960Z,-3.85
2022-12-13T20:54:05.940Z,-3.74
2022-12-13T21:55:39.211Z,-3.98
